NEA766 KRDU-KJFK
Flight info
| Callsign | NEA766 |
|---|---|
| Flight time | N/A |
| Altitude | 37000 |
| Route | HURIC4 FEBEL GUILD SAWED Q108 SIE CAMRN5 |
| Aircraft | A321/M-SDE3FGHIRWY/LB1 |
Departure
| Time | 2026-05-06 23:49 |
|---|---|
| Airport | Raleigh-Durham International Airport (KRDU) |
Arrival
| Time | N/A |
|---|---|
| Airport | John F. Kennedy International Airport (KJFK) |
| Time | Latitude | Longitude | Altitude | Speed | Heading |
|---|---|---|---|---|---|
| 2026-05-06 23:24 | 35.87955 | -78.79172 | 392 ft | 0 kts | 143° |
| 2026-05-06 23:36 | 35.87957 | -78.79173 | 392 ft | 1 kts | 143° |
| 2026-05-06 23:36 | 35.87969 | -78.79185 | 392 ft | 2 kts | 143° |
| 2026-05-06 23:37 | 35.87982 | -78.79197 | 392 ft | 3 kts | 128° |
| 2026-05-06 23:37 | 35.87990 | -78.79216 | 392 ft | 3 kts | 84° |
| 2026-05-06 23:37 | 35.87984 | -78.79237 | 392 ft | 3 kts | 51° |
| 2026-05-06 23:37 | 35.87973 | -78.79253 | 392 ft | 1 kts | 45° |
| 2026-05-06 23:38 | 35.87969 | -78.79257 | 392 ft | 0 kts | 45° |
| 2026-05-06 23:42 | 35.87970 | -78.79256 | 392 ft | 2 kts | 45° |
| 2026-05-06 23:42 | 35.88021 | -78.79193 | 392 ft | 18 kts | 45° |
| 2026-05-06 23:42 | 35.88109 | -78.79083 | 392 ft | 18 kts | 46° |
| 2026-05-06 23:43 | 35.88103 | -78.78959 | 391 ft | 14 kts | 134° |
| 2026-05-06 23:43 | 35.88043 | -78.78886 | 407 ft | 13 kts | 135° |
| 2026-05-06 23:43 | 35.87979 | -78.78811 | 415 ft | 10 kts | 136° |
| 2026-05-06 23:43 | 35.87933 | -78.78779 | 416 ft | 7 kts | 160° |
| 2026-05-06 23:44 | 35.87884 | -78.78758 | 411 ft | 8 kts | 162° |
| 2026-05-06 23:44 | 35.87835 | -78.78732 | 422 ft | 6 kts | 150° |
| 2026-05-06 23:44 | 35.87802 | -78.78701 | 419 ft | 8 kts | 139° |
| 2026-05-06 23:44 | 35.87749 | -78.78639 | 421 ft | 12 kts | 136° |
| 2026-05-06 23:45 | 35.87694 | -78.78572 | 428 ft | 11 kts | 135° |
| 2026-05-06 23:45 | 35.87683 | -78.78559 | 433 ft | 1 kts | 135° |
| 2026-05-06 23:45 | 35.87669 | -78.78542 | 422 ft | 7 kts | 135° |
| 2026-05-06 23:45 | 35.87641 | -78.78484 | 433 ft | 9 kts | 82° |
| 2026-05-06 23:46 | 35.87690 | -78.78413 | 431 ft | 13 kts | 45° |
| 2026-05-06 23:46 | 35.87764 | -78.78321 | 435 ft | 16 kts | 45° |
| 2026-05-06 23:46 | 35.87847 | -78.78219 | 432 ft | 17 kts | 45° |
| 2026-05-06 23:46 | 35.87934 | -78.78112 | 425 ft | 17 kts | 45° |
| 2026-05-06 23:47 | 35.87976 | -78.78037 | 424 ft | 9 kts | 81° |
| 2026-05-06 23:47 | 35.87974 | -78.78024 | 431 ft | 1 kts | 103° |
| 2026-05-06 23:47 | 35.87965 | -78.78015 | 433 ft | 6 kts | 136° |
| 2026-05-06 23:47 | 35.87922 | -78.77965 | 438 ft | 9 kts | 142° |
| 2026-05-06 23:48 | 35.87879 | -78.77988 | 435 ft | 5 kts | 221° |
| 2026-05-06 23:48 | 35.87868 | -78.78000 | 425 ft | 0 kts | 224° |
| 2026-05-06 23:48 | 35.87855 | -78.78016 | 437 ft | 16 kts | 224° |
| 2026-05-06 23:48 | 35.87584 | -78.78351 | 425 ft | 91 kts | 225° |
| 2026-05-06 23:49 | 35.86982 | -78.79093 | 460 ft | 147 kts | 224° |
| 2026-05-06 23:49 | 35.86206 | -78.79925 | 1059 ft | 149 kts | 213° |
| 2026-05-06 23:49 | 35.85246 | -78.80440 | 1698 ft | 155 kts | 205° |
| 2026-05-06 23:49 | 35.84152 | -78.80865 | 1991 ft | 176 kts | 201° |
| 2026-05-06 23:50 | 35.82906 | -78.81336 | 2195 ft | 198 kts | 201° |
| 2026-05-06 23:50 | 35.79937 | -78.82471 | 2818 ft | 244 kts | 201° |
| 2026-05-06 23:50 | 35.78288 | -78.83101 | 3547 ft | 249 kts | 201° |
| 2026-05-06 23:51 | 35.76577 | -78.83522 | 4341 ft | 259 kts | 185° |
| 2026-05-06 23:51 | 35.74776 | -78.83006 | 5035 ft | 277 kts | 156° |
| 2026-05-06 23:51 | 35.73327 | -78.81357 | 5712 ft | 296 kts | 124° |
| 2026-05-06 23:51 | 35.72740 | -78.78907 | 6373 ft | 308 kts | 90° |
| 2026-05-06 23:52 | 35.73208 | -78.76335 | 6999 ft | 312 kts | 65° |
| 2026-05-06 23:52 | 35.74134 | -78.73912 | 7715 ft | 315 kts | 60° |
| 2026-05-06 23:52 | 35.75181 | -78.71512 | 8400 ft | 320 kts | 58° |
| 2026-05-06 23:52 | 35.76269 | -78.69113 | 9090 ft | 324 kts | 58° |
| 2026-05-06 23:53 | 35.77370 | -78.66665 | 9807 ft | 328 kts | 58° |
| 2026-05-06 23:53 | 35.78470 | -78.64167 | 10228 ft | 342 kts | 59° |
| 2026-05-06 23:53 | 35.79624 | -78.61492 | 10367 ft | 364 kts | 60° |
| 2026-05-06 23:53 | 35.80817 | -78.58672 | 10763 ft | 376 kts | 60° |
| 2026-05-06 23:54 | 35.82016 | -78.55795 | 11397 ft | 379 kts | 60° |
| 2026-05-06 23:54 | 35.83223 | -78.52882 | 11843 ft | 382 kts | 60° |
| 2026-05-06 23:54 | 35.84431 | -78.49963 | 12301 ft | 383 kts | 60° |
| 2026-05-06 23:54 | 35.85641 | -78.47037 | 13011 ft | 385 kts | 60° |
| 2026-05-06 23:55 | 35.86862 | -78.44089 | 13726 ft | 387 kts | 60° |
| 2026-05-06 23:55 | 35.88094 | -78.41120 | 14320 ft | 390 kts | 60° |
| 2026-05-06 23:55 | 35.89335 | -78.38126 | 14885 ft | 393 kts | 60° |
| 2026-05-06 23:55 | 35.90583 | -78.35109 | 15460 ft | 397 kts | 60° |
| 2026-05-06 23:56 | 35.91637 | -78.31931 | 16020 ft | 404 kts | 71° |
| 2026-05-06 23:56 | 35.92228 | -78.28517 | 16586 ft | 411 kts | 81° |
| 2026-05-06 23:56 | 35.92559 | -78.25003 | 17150 ft | 415 kts | 82° |
| 2026-05-06 23:56 | 35.92897 | -78.21428 | 17624 ft | 422 kts | 81° |
| 2026-05-06 23:57 | 35.93239 | -78.17821 | 18150 ft | 426 kts | 81° |
| 2026-05-06 23:57 | 35.93588 | -78.14165 | 18623 ft | 431 kts | 81° |
| 2026-05-06 23:57 | 35.93939 | -78.10478 | 19099 ft | 434 kts | 81° |
| 2026-05-06 23:57 | 35.94291 | -78.06761 | 19580 ft | 438 kts | 81° |
| 2026-05-06 23:58 | 35.94643 | -78.03011 | 20066 ft | 442 kts | 82° |
| 2026-05-06 23:58 | 35.94999 | -77.99238 | 20534 ft | 446 kts | 82° |
| 2026-05-06 23:58 | 35.95356 | -77.95420 | 20994 ft | 450 kts | 82° |
| 2026-05-06 23:58 | 35.95593 | -77.92873 | 21352 ft | 451 kts | 82° |
| 2026-05-06 23:59 | 35.95947 | -77.89028 | 21884 ft | 453 kts | 82° |
| 2026-05-06 23:59 | 35.96417 | -77.83876 | 22529 ft | 458 kts | 82° |
| 2026-05-06 23:59 | 35.96659 | -77.81240 | 22850 ft | 460 kts | 82° |
| 2026-05-06 23:59 | 35.97026 | -77.77301 | 23309 ft | 463 kts | 82° |
| 2026-05-07 00:00 | 35.97399 | -77.73343 | 23709 ft | 466 kts | 82° |
| 2026-05-07 00:00 | 35.97777 | -77.69354 | 24075 ft | 469 kts | 82° |
| 2026-05-07 00:00 | 35.98287 | -77.64026 | 24566 ft | 473 kts | 82° |
| 2026-05-07 00:00 | 35.98550 | -77.61306 | 24811 ft | 475 kts | 82° |
| 2026-05-07 00:01 | 35.98947 | -77.57244 | 25175 ft | 477 kts | 82° |
| 2026-05-07 00:01 | 35.99355 | -77.53187 | 25592 ft | 478 kts | 82° |
| 2026-05-07 00:01 | 35.99767 | -77.49109 | 25963 ft | 480 kts | 82° |
| 2026-05-07 00:01 | 36.00182 | -77.45011 | 26317 ft | 482 kts | 82° |
| 2026-05-07 00:02 | 36.00595 | -77.40938 | 26662 ft | 485 kts | 82° |
| 2026-05-07 00:02 | 36.01014 | -77.36805 | 26994 ft | 487 kts | 82° |
| 2026-05-07 00:02 | 36.01437 | -77.32640 | 27341 ft | 490 kts | 82° |
| 2026-05-07 00:02 | 36.01867 | -77.28402 | 27678 ft | 492 kts | 82° |
| 2026-05-07 00:03 | 36.01936 | -77.24219 | 27983 ft | 495 kts | 97° |
| 2026-05-07 00:03 | 36.01101 | -77.20062 | 28306 ft | 493 kts | 115° |
| 2026-05-07 00:03 | 35.99429 | -77.16409 | 28636 ft | 487 kts | 132° |
| 2026-05-07 00:03 | 35.97093 | -77.13517 | 28930 ft | 479 kts | 149° |
| 2026-05-07 00:04 | 35.94231 | -77.11531 | 29213 ft | 468 kts | 166° |
| 2026-05-07 00:04 | 35.91121 | -77.10635 | 29488 ft | 455 kts | 182° |
| 2026-05-07 00:04 | 35.88010 | -77.10871 | 29762 ft | 442 kts | 199° |
| 2026-05-07 00:04 | 35.85195 | -77.12181 | 30031 ft | 429 kts | 216° |
| 2026-05-07 00:05 | 35.82892 | -77.14427 | 30271 ft | 418 kts | 233° |
| 2026-05-07 00:05 | 35.81269 | -77.17343 | 30526 ft | 411 kts | 248° |
| 2026-05-07 00:05 | 35.80380 | -77.20655 | 30764 ft | 407 kts | 263° |
| 2026-05-07 00:05 | 35.80278 | -77.24118 | 31040 ft | 405 kts | 277° |
| 2026-05-07 00:06 | 35.80965 | -77.27474 | 31383 ft | 407 kts | 291° |
| 2026-05-07 00:06 | 35.82395 | -77.30480 | 31834 ft | 409 kts | 304° |
| 2026-05-07 00:06 | 35.84460 | -77.32908 | 32360 ft | 415 kts | 318° |
| 2026-05-07 00:06 | 35.87048 | -77.34553 | 32886 ft | 426 kts | 333° |
| 2026-05-07 00:07 | 35.90004 | -77.35210 | 33363 ft | 443 kts | 349° |
| 2026-05-07 00:07 | 35.93135 | -77.34774 | 33794 ft | 459 kts | 0° |
| 2026-05-07 00:07 | 35.96260 | -77.33985 | 34156 ft | 458 kts | 0° |
| 2026-05-07 00:07 | 35.99363 | -77.33181 | 34498 ft | 456 kts | 0° |
| 2026-05-07 00:08 | 36.02461 | -77.32372 | 34836 ft | 454 kts | 360° |
| 2026-05-07 00:08 | 36.05548 | -77.31572 | 35182 ft | 451 kts | 359° |
| 2026-05-07 00:08 | 36.08608 | -77.30788 | 35581 ft | 449 kts | 359° |
| 2026-05-07 00:08 | 36.11663 | -77.30010 | 35923 ft | 446 kts | 358° |
| 2026-05-07 00:09 | 36.14689 | -77.29240 | 36255 ft | 444 kts | 358° |
| 2026-05-07 00:09 | 36.17714 | -77.28473 | 36579 ft | 442 kts | 358° |
| 2026-05-07 00:09 | 36.20720 | -77.27712 | 36847 ft | 442 kts | 357° |
| 2026-05-07 00:09 | 36.23742 | -77.26947 | 36949 ft | 445 kts | 357° |
| 2026-05-07 00:10 | 36.29871 | -77.25211 | 36958 ft | 469 kts | 7° |
| 2026-05-07 00:10 | 36.32854 | -77.23287 | 36965 ft | 501 kts | 24° |
| 2026-05-07 00:10 | 36.35566 | -77.20438 | 36969 ft | 514 kts | 30° |
| 2026-05-07 00:11 | 36.40859 | -77.14458 | 36960 ft | 515 kts | 30° |
| 2026-05-07 00:11 | 36.46150 | -77.08466 | 36955 ft | 514 kts | 30° |
| 2026-05-07 00:12 | 36.51457 | -77.02497 | 36957 ft | 515 kts | 30° |
| 2026-05-07 00:12 | 36.56773 | -76.96535 | 36982 ft | 516 kts | 30° |
| 2026-05-07 00:13 | 36.62106 | -76.90547 | 36975 ft | 517 kts | 30° |
| 2026-05-07 00:13 | 36.67447 | -76.84522 | 36964 ft | 517 kts | 30° |
| 2026-05-07 00:14 | 36.72726 | -76.78529 | 36975 ft | 517 kts | 30° |
| 2026-05-07 00:14 | 36.78025 | -76.72501 | 36949 ft | 514 kts | 30° |
| 2026-05-07 00:15 | 36.83343 | -76.66462 | 36950 ft | 514 kts | 30° |
| 2026-05-07 00:15 | 36.88606 | -76.60491 | 36953 ft | 515 kts | 30° |
| 2026-05-07 00:16 | 36.93898 | -76.54463 | 36960 ft | 516 kts | 30° |
| 2026-05-07 00:16 | 36.99196 | -76.48399 | 36896 ft | 515 kts | 31° |
| 2026-05-07 00:17 | 37.04468 | -76.42348 | 36928 ft | 514 kts | 31° |
| 2026-05-07 00:17 | 37.09741 | -76.36308 | 36937 ft | 514 kts | 31° |
| 2026-05-07 00:18 | 37.15026 | -76.30242 | 36937 ft | 514 kts | 31° |
| 2026-05-07 00:18 | 37.20294 | -76.24175 | 36911 ft | 514 kts | 31° |
| 2026-05-07 00:19 | 37.25555 | -76.18098 | 36923 ft | 515 kts | 31° |
| 2026-05-07 00:19 | 37.30834 | -76.11998 | 36913 ft | 515 kts | 31° |
| 2026-05-07 00:20 | 37.36097 | -76.05902 | 36959 ft | 515 kts | 31° |
| 2026-05-07 00:20 | 37.41349 | -75.99800 | 36923 ft | 513 kts | 31° |
| 2026-05-07 00:21 | 37.46592 | -75.93702 | 36925 ft | 514 kts | 31° |
| 2026-05-07 00:21 | 37.51852 | -75.87582 | 36929 ft | 514 kts | 30° |
| 2026-05-07 00:22 | 37.54630 | -75.84879 | 36927 ft | 497 kts | 20° |
| 2026-05-07 00:22 | 37.57571 | -75.82645 | 36932 ft | 493 kts | 18° |
| 2026-05-07 00:22 | 37.63472 | -75.78236 | 36914 ft | 493 kts | 19° |
| 2026-05-07 00:23 | 37.69364 | -75.73824 | 36936 ft | 493 kts | 19° |
| 2026-05-07 00:23 | 37.75255 | -75.69393 | 36951 ft | 493 kts | 19° |
| 2026-05-07 00:24 | 37.81141 | -75.64950 | 36917 ft | 493 kts | 19° |
| 2026-05-07 00:24 | 37.86998 | -75.60417 | 36502 ft | 495 kts | 21° |
| 2026-05-07 00:25 | 37.89878 | -75.57987 | 35780 ft | 499 kts | 23° |
| 2026-05-07 00:25 | 37.92729 | -75.55471 | 35177 ft | 501 kts | 24° |
| 2026-05-07 00:25 | 37.95573 | -75.52903 | 34953 ft | 504 kts | 25° |
| 2026-05-07 00:25 | 37.98435 | -75.50318 | 34906 ft | 506 kts | 25° |
| 2026-05-07 00:26 | 38.01480 | -75.47592 | 34899 ft | 510 kts | 24° |